sensor_id;sensor_type;location;lat;lon;timestamp;pressure;altitude;pressure_sealevel;temperature;humidity
47897;BME280;39629;51.400;5.494;2023-02-28T00:02:06;102929.78;;;-2.25;100.00
47897;BME280;39629;51.400;5.494;2023-02-28T00:07:07;102930.69;;;-2.34;100.00
47897;BME280;39629;51.400;5.494;2023-02-28T00:12:09;102929.38;;;-2.29;100.00
47897;BME280;39629;51.400;5.494;2023-02-28T00:17:12;102923.81;;;-2.24;100.00
47897;BME280;39629;51.400;5.494;2023-02-28T00:22:14;102928.84;;;-2.46;100.00
47897;BME280;39629;51.400;5.494;2023-02-28T00:27:16;102936.06;;;-2.42;100.00
47897;BME280;39629;51.400;5.494;2023-02-28T00:32:19;102935.59;;;-2.58;100.00
47897;BME280;39629;51.400;5.494;2023-02-28T00:37:20;102931.47;;;-2.66;100.00
47897;BME280;39629;51.400;5.494;2023-02-28T00:42:22;102935.59;;;-2.58;100.00
47897;BME280;39629;51.400;5.494;2023-02-28T00:47:25;102941.38;;;-2.61;100.00
47897;BME280;39629;51.400;5.494;2023-02-28T00:52:27;102935.44;;;-2.49;100.00
47897;BME280;39629;51.400;5.494;2023-02-28T00:57:29;102937.63;;;-2.64;100.00
47897;BME280;39629;51.400;5.494;2023-02-28T01:02:32;102944.88;;;-2.50;100.00
47897;BME280;39629;51.400;5.494;2023-02-28T01:07:33;102946.16;;;-2.55;100.00
47897;BME280;39629;51.400;5.494;2023-02-28T01:12:35;102953.84;;;-2.65;100.00
47897;BME280;39629;51.400;5.494;2023-02-28T01:17:38;102947.44;;;-2.70;100.00
47897;BME280;39629;51.400;5.494;2023-02-28T01:22:39;102946.38;;;-2.72;100.00
47897;BME280;39629;51.400;5.494;2023-02-28T01:27:42;102951.50;;;-2.93;100.00
47897;BME280;39629;51.400;5.494;2023-02-28T01:32:44;102940.19;;;-2.95;100.00
47897;BME280;39629;51.400;5.494;2023-02-28T01:37:46;102946.50;;;-2.81;100.00
47897;BME280;39629;51.400;5.494;2023-02-28T01:42:48;102946.59;;;-3.11;100.00
47897;BME280;39629;51.400;5.494;2023-02-28T01:47:53;102940.13;;;-3.05;100.00
47897;BME280;39629;51.400;5.494;2023-02-28T01:53:01;102943.75;;;-3.03;100.00
47897;BME280;39629;51.400;5.494;2023-02-28T01:58:06;102940.38;;;-3.13;100.00
47897;BME280;39629;51.400;5.494;2023-02-28T02:03:13;102926.22;;;-3.18;100.00
47897;BME280;39629;51.400;5.494;2023-02-28T02:08:19;102918.69;;;-3.35;100.00
47897;BME280;39629;51.400;5.494;2023-02-28T02:13:47;102919.22;;;-3.29;100.00
47897;BME280;39629;51.400;5.494;2023-02-28T02:19:01;102924.38;;;-3.29;100.00
47897;BME280;39629;51.400;5.494;2023-02-28T02:24:45;102906.13;;;-3.22;100.00
47897;BME280;39629;51.400;5.494;2023-02-28T02:30:19;102899.78;;;-3.36;100.00
47897;BME280;39629;51.400;5.494;2023-02-28T02:35:26;102903.50;;;-3.32;100.00
47897;BME280;39629;51.400;5.494;2023-02-28T02:40:35;102899.63;;;-3.37;100.00
47897;BME280;39629;51.400;5.494;2023-02-28T02:45:42;102898.28;;;-3.03;100.00
47897;BME280;39629;51.400;5.494;2023-02-28T02:50:50;102899.34;;;-3.51;100.00
47897;BME280;39629;51.400;5.494;2023-02-28T02:55:53;102906.88;;;-3.63;100.00
47897;BME280;39629;51.400;5.494;2023-02-28T03:01:00;102904.88;;;-3.56;100.00
47897;BME280;39629;51.400;5.494;2023-02-28T03:06:06;102916.94;;;-3.55;100.00
47897;BME280;39629;51.400;5.494;2023-02-28T03:11:13;102906.50;;;-3.57;100.00
47897;BME280;39629;51.400;5.494;2023-02-28T03:16:34;102916.03;;;-3.56;100.00
47897;BME280;39629;51.400;5.494;2023-02-28T03:21:40;102905.16;;;-3.43;100.00
47897;BME280;39629;51.400;5.494;2023-02-28T03:26:50;102914.34;;;-3.26;100.00
47897;BME280;39629;51.400;5.494;2023-02-28T03:31:59;102907.41;;;-3.17;100.00
47897;BME280;39629;51.400;5.494;2023-02-28T03:37:08;102911.03;;;-3.04;100.00
47897;BME280;39629;51.400;5.494;2023-02-28T03:42:15;102909.53;;;-3.02;100.00
47897;BME280;39629;51.400;5.494;2023-02-28T03:47:21;102914.69;;;-2.82;100.00
47897;BME280;39629;51.400;5.494;2023-02-28T03:52:30;102909.66;;;-2.70;100.00
47897;BME280;39629;51.400;5.494;2023-02-28T03:57:37;102908.63;;;-2.62;100.00
47897;BME280;39629;51.400;5.494;2023-02-28T04:02:41;102922.94;;;-2.65;100.00
47897;BME280;39629;51.400;5.494;2023-02-28T04:07:44;102920.09;;;-2.68;100.00
47897;BME280;39629;51.400;5.494;2023-02-28T04:12:46;102914.44;;;-2.64;100.00
47897;BME280;39629;51.400;5.494;2023-02-28T04:17:47;102905.66;;;-2.35;100.00
47897;BME280;39629;51.400;5.494;2023-02-28T04:22:50;102908.47;;;-2.32;100.00
47897;BME280;39629;51.400;5.494;2023-02-28T04:27:52;102908.97;;;-2.16;100.00
47897;BME280;39629;51.400;5.494;2023-02-28T04:32:53;102917.16;;;-1.89;100.00
47897;BME280;39629;51.400;5.494;2023-02-28T04:37:56;102920.91;;;-1.96;100.00
47897;BME280;39629;51.400;5.494;2023-02-28T04:42:58;102916.16;;;-1.91;100.00
47897;BME280;39629;51.400;5.494;2023-02-28T04:47:59;102918.28;;;-1.75;100.00
47897;BME280;39629;51.400;5.494;2023-02-28T04:53:02;102909.56;;;-1.55;100.00
47897;BME280;39629;51.400;5.494;2023-02-28T04:58:04;102922.25;;;-1.58;100.00
47897;BME280;39629;51.400;5.494;2023-02-28T05:03:06;102915.78;;;-1.63;100.00
47897;BME280;39629;51.400;5.494;2023-02-28T05:08:09;102916.56;;;-1.64;100.00
47897;BME280;39629;51.400;5.494;2023-02-28T05:13:12;102915.78;;;-1.63;100.00
47897;BME280;39629;51.400;5.494;2023-02-28T05:18:14;102921.97;;;-1.61;100.00
47897;BME280;39629;51.400;5.494;2023-02-28T05:23:17;102923.59;;;-1.51;100.00
47897;BME280;39629;51.400;5.494;2023-02-28T05:28:21;102935.56;;;-1.42;100.00
47897;BME280;39629;51.400;5.494;2023-02-28T05:33:23;102940.78;;;-1.52;100.00
47897;BME280;39629;51.400;5.494;2023-02-28T05:38:26;102933.16;;;-1.50;100.00
47897;BME280;39629;51.400;5.494;2023-02-28T05:43:27;102938.66;;;-1.35;100.00
47897;BME280;39629;51.400;5.494;2023-02-28T05:48:29;102944.47;;;-1.38;100.00
47897;BME280;39629;51.400;5.494;2023-02-28T05:53:32;102943.72;;;-1.47;100.00
47897;BME280;39629;51.400;5.494;2023-02-28T05:58:35;102938.97;;;-1.43;100.00
47897;BME280;39629;51.400;5.494;2023-02-28T06:03:36;102935.22;;;-1.46;100.00
47897;BME280;39629;51.400;5.494;2023-02-28T06:08:39;102934.09;;;-1.60;100.00
47897;BME280;39629;51.400;5.494;2023-02-28T06:13:41;102940.44;;;-1.67;100.00
47897;BME280;39629;51.400;5.494;2023-02-28T06:18:42;102945.09;;;-1.63;100.00
47897;BME280;39629;51.400;5.494;2023-02-28T06:23:45;102943.63;;;-1.49;100.00
47897;BME280;39629;51.400;5.494;2023-02-28T06:28:47;102955.00;;;-1.57;100.00
47897;BME280;39629;51.400;5.494;2023-02-28T06:33:49;102948.88;;;-1.37;100.00
47897;BME280;39629;51.400;5.494;2023-02-28T06:38:52;102958.66;;;-1.33;100.00
47897;BME280;39629;51.400;5.494;2023-02-28T06:43:56;102956.13;;;-1.21;100.00
47897;BME280;39629;51.400;5.494;2023-02-28T06:48:57;102957.53;;;-1.14;100.00
47897;BME280;39629;51.400;5.494;2023-02-28T06:54:02;102961.97;;;-1.01;100.00
47897;BME280;39629;51.400;5.494;2023-02-28T06:59:04;102969.03;;;-1.11;100.00
47897;BME280;39629;51.400;5.494;2023-02-28T07:04:06;102973.16;;;-1.13;100.00
47897;BME280;39629;51.400;5.494;2023-02-28T07:09:09;102979.09;;;-1.14;100.00
47897;BME280;39629;51.400;5.494;2023-02-28T07:14:10;102992.22;;;-1.00;100.00
47897;BME280;39629;51.400;5.494;2023-02-28T07:19:12;102994.56;;;-0.59;100.00
47897;BME280;39629;51.400;5.494;2023-02-28T07:24:15;102991.28;;;-0.34;100.00
47897;BME280;39629;51.400;5.494;2023-02-28T07:29:18;103000.22;;;-0.07;100.00
47897;BME280;39629;51.400;5.494;2023-02-28T07:34:19;102986.44;;;0.28;100.00
47897;BME280;39629;51.400;5.494;2023-02-28T07:39:22;102988.78;;;0.37;100.00
47897;BME280;39629;51.400;5.494;2023-02-28T07:44:24;102985.97;;;0.57;100.00
47897;BME280;39629;51.400;5.494;2023-02-28T07:49:25;102989.50;;;0.83;100.00
47897;BME280;39629;51.400;5.494;2023-02-28T07:54:28;103002.41;;;1.07;100.00
47897;BME280;39629;51.400;5.494;2023-02-28T07:59:30;103000.91;;;1.22;100.00
47897;BME280;39629;51.400;5.494;2023-02-28T08:04:32;103005.66;;;1.53;100.00
47897;BME280;39629;51.400;5.494;2023-02-28T08:09:35;103003.75;;;1.50;100.00
47897;BME280;39629;51.400;5.494;2023-02-28T08:14:37;103009.94;;;1.78;100.00
47897;BME280;39629;51.400;5.494;2023-02-28T08:19:39;103001.81;;;1.73;100.00
47897;BME280;39629;51.400;5.494;2023-02-28T08:24:43;103004.38;;;1.98;100.00
47897;BME280;39629;51.400;5.494;2023-02-28T08:29:44;102992.44;;;2.14;100.00
47897;BME280;39629;51.400;5.494;2023-02-28T08:34:46;102997.00;;;2.18;100.00
47897;BME280;39629;51.400;5.494;2023-02-28T08:39:49;102982.84;;;2.40;100.00
47897;BME280;39629;51.400;5.494;2023-02-28T08:44:50;102990.41;;;2.63;99.68
47897;BME280;39629;51.400;5.494;2023-02-28T08:49:52;102989.56;;;2.91;95.16
47897;BME280;39629;51.400;5.494;2023-02-28T08:54:55;102978.59;;;3.23;87.48
47897;BME280;39629;51.400;5.494;2023-02-28T08:59:57;102988.00;;;3.65;85.09
47897;BME280;39629;51.400;5.494;2023-02-28T09:04:58;102989.25;;;3.42;76.52
47897;BME280;39629;51.400;5.494;2023-02-28T09:10:01;102987.47;;;3.70;74.72
47897;BME280;39629;51.400;5.494;2023-02-28T09:15:04;102993.06;;;3.77;71.46
47897;BME280;39629;51.400;5.494;2023-02-28T09:20:07;102995.38;;;3.72;67.97
47897;BME280;39629;51.400;5.494;2023-02-28T09:25:10;102979.59;;;3.84;66.85
47897;BME280;39629;51.400;5.494;2023-02-28T09:30:13;102987.50;;;3.85;64.91
47897;BME280;39629;51.400;5.494;2023-02-28T09:35:14;102988.28;;;3.54;61.43
47897;BME280;39629;51.400;5.494;2023-02-28T09:40:18;102978.44;;;3.94;58.54
47897;BME280;39629;51.400;5.494;2023-02-28T09:45:24;102983.13;;;4.60;57.31
47897;BME280;39629;51.400;5.494;2023-02-28T09:50:32;102977.69;;;4.72;51.09
47897;BME280;39629;51.400;5.494;2023-02-28T09:55:39;102978.94;;;4.96;46.98
47897;BME280;39629;51.400;5.494;2023-02-28T10:00:43;102975.09;;;4.72;46.43
47897;BME280;39629;51.400;5.494;2023-02-28T10:05:51;102981.56;;;4.96;43.30
47897;BME280;39629;51.400;5.494;2023-02-28T10:10:57;102978.34;;;4.68;42.73
47897;BME280;39629;51.400;5.494;2023-02-28T10:16:03;102964.53;;;5.02;40.94
47897;BME280;39629;51.400;5.494;2023-02-28T10:21:15;102956.13;;;5.24;42.68
47897;BME280;39629;51.400;5.494;2023-02-28T10:26:20;102959.63;;;4.92;42.37
47897;BME280;39629;51.400;5.494;2023-02-28T10:31:24;102951.28;;;4.83;43.06
47897;BME280;39629;51.400;5.494;2023-02-28T10:36:25;102939.22;;;4.68;42.88
47897;BME280;39629;51.400;5.494;2023-02-28T10:41:31;102942.91;;;5.38;40.44
47897;BME280;39629;51.400;5.494;2023-02-28T10:46:35;102951.00;;;5.26;39.71
47897;BME280;39629;51.400;5.494;2023-02-28T10:51:38;102951.72;;;4.90;39.83
47897;BME280;39629;51.400;5.494;2023-02-28T10:56:41;102945.44;;;5.36;39.15
47897;BME280;39629;51.400;5.494;2023-02-28T11:01:45;102943.78;;;5.55;39.24
47897;BME280;39629;51.400;5.494;2023-02-28T11:06:56;102939.19;;;5.67;39.54
47897;BME280;39629;51.400;5.494;2023-02-28T11:12:00;102931.00;;;5.43;37.49
47897;BME280;39629;51.400;5.494;2023-02-28T11:17:13;102936.41;;;5.30;40.30
47897;BME280;39629;51.400;5.494;2023-02-28T11:22:18;102936.31;;;5.44;40.05
47897;BME280;39629;51.400;5.494;2023-02-28T11:27:46;102915.94;;;6.08;39.06
47897;BME280;39629;51.400;5.494;2023-02-28T11:32:49;102913.56;;;5.94;39.85
47897;BME280;39629;51.400;5.494;2023-02-28T11:37:51;102918.63;;;5.73;39.47
47897;BME280;39629;51.400;5.494;2023-02-28T11:43:01;102915.16;;;5.74;40.79
47897;BME280;39629;51.400;5.494;2023-02-28T11:48:14;102907.44;;;5.94;40.01
47897;BME280;39629;51.400;5.494;2023-02-28T11:53:24;102885.63;;;5.75;41.01
47897;BME280;39629;51.400;5.494;2023-02-28T11:58:44;102896.59;;;5.68;40.40
47897;BME280;39629;51.400;5.494;2023-02-28T12:03:58;102900.44;;;6.11;40.89
47897;BME280;39629;51.400;5.494;2023-02-28T12:09:17;102892.59;;;6.29;39.01
47897;BME280;39629;51.400;5.494;2023-02-28T12:15:00;102893.84;;;5.83;39.26
47897;BME280;39629;51.400;5.494;2023-02-28T12:20:13;102890.47;;;5.86;40.45
47897;BME280;39629;51.400;5.494;2023-02-28T12:25:38;102871.75;;;5.94;41.05
47897;BME280;39629;51.400;5.494;2023-02-28T12:30:54;102868.66;;;6.77;45.04
47897;BME280;39629;51.400;5.494;2023-02-28T12:35:59;102871.69;;;6.11;39.96
47897;BME280;39629;51.400;5.494;2023-02-28T12:41:04;102866.03;;;6.39;38.42
47897;BME280;39629;51.400;5.494;2023-02-28T12:46:11;102863.06;;;6.13;40.06
47897;BME280;39629;51.400;5.494;2023-02-28T12:51:15;102841.56;;;6.37;42.00
47897;BME280;39629;51.400;5.494;2023-02-28T12:56:23;102850.97;;;6.16;39.67
47897;BME280;39629;51.400;5.494;2023-02-28T13:01:46;102839.63;;;6.33;39.42
47897;BME280;39629;51.400;5.494;2023-02-28T13:07:19;102826.72;;;6.95;39.87
47897;BME280;39629;51.400;5.494;2023-02-28T13:12:26;102834.53;;;6.36;39.45
47897;BME280;39629;51.400;5.494;2023-02-28T13:17:29;102820.38;;;6.70;39.66
47897;BME280;39629;51.400;5.494;2023-02-28T13:22:39;102827.16;;;6.85;39.07
47897;BME280;39629;51.400;5.494;2023-02-28T13:27:41;102820.69;;;6.76;39.31
47897;BME280;39629;51.400;5.494;2023-02-28T13:32:45;102817.44;;;6.62;39.39
47897;BME280;39629;51.400;5.494;2023-02-28T13:37:47;102814.81;;;6.25;41.08
47897;BME280;39629;51.400;5.494;2023-02-28T13:42:52;102809.53;;;6.23;39.41
47897;BME280;39629;51.400;5.494;2023-02-28T13:47:58;102807.09;;;6.08;39.62
47897;BME280;39629;51.400;5.494;2023-02-28T13:53:37;102802.84;;;6.30;41.89
47897;BME280;39629;51.400;5.494;2023-02-28T13:58:53;102802.06;;;6.13;40.37
47897;BME280;39629;51.400;5.494;2023-02-28T14:04:14;102805.34;;;6.46;41.21
47897;BME280;39629;51.400;5.494;2023-02-28T14:09:24;102799.50;;;6.14;39.88
47897;BME280;39629;51.400;5.494;2023-02-28T14:14:55;102808.72;;;6.06;41.40
47897;BME280;39629;51.400;5.494;2023-02-28T14:19:59;102794.03;;;5.90;40.37
47897;BME280;39629;51.400;5.494;2023-02-28T14:25:09;102790.75;;;5.76;40.40
47897;BME280;39629;51.400;5.494;2023-02-28T14:36:06;102786.19;;;5.90;41.96
47897;BME280;39629;51.400;5.494;2023-02-28T14:41:15;102785.78;;;6.38;45.48
47897;BME280;39629;51.400;5.494;2023-02-28T14:46:19;102790.81;;;5.78;42.04
47897;BME280;39629;51.400;5.494;2023-02-28T14:51:23;102781.34;;;5.62;41.04
47897;BME280;39629;51.400;5.494;2023-02-28T14:56:28;102783.59;;;5.54;41.95
47897;BME280;39629;51.400;5.494;2023-02-28T15:01:31;102778.13;;;5.50;43.03
47897;BME280;39629;51.400;5.494;2023-02-28T15:06:35;102773.81;;;5.50;41.96
47897;BME280;39629;51.400;5.494;2023-02-28T15:11:38;102777.38;;;5.70;43.62
47897;BME280;39629;51.400;5.494;2023-02-28T15:16:43;102774.94;;;5.73;43.37
47897;BME280;39629;51.400;5.494;2023-02-28T15:21:49;102778.69;;;5.98;45.61
47897;BME280;39629;51.400;5.494;2023-02-28T15:26:55;102777.69;;;5.40;43.42
47897;BME280;39629;51.400;5.494;2023-02-28T15:32:01;102773.78;;;5.32;43.99
47897;BME280;39629;51.400;5.494;2023-02-28T15:37:26;102774.25;;;5.41;43.28
47897;BME280;39629;51.400;5.494;2023-02-28T15:42:29;102778.53;;;5.23;42.59
47897;BME280;39629;51.400;5.494;2023-02-28T15:47:32;102776.81;;;5.05;43.12
47897;BME280;39629;51.400;5.494;2023-02-28T15:52:41;102789.06;;;4.90;43.32
47897;BME280;39629;51.400;5.494;2023-02-28T15:57:44;102771.34;;;5.01;46.04
47897;BME280;39629;51.400;5.494;2023-02-28T16:02:47;102773.59;;;4.93;46.88
47897;BME280;39629;51.400;5.494;2023-02-28T16:07:50;102785.47;;;4.88;45.14
47897;BME280;39629;51.400;5.494;2023-02-28T16:12:53;102773.88;;;4.99;46.31
47897;BME280;39629;51.400;5.494;2023-02-28T16:17:56;102771.56;;;4.71;45.77
47897;BME280;39629;51.400;5.494;2023-02-28T16:22:59;102778.88;;;4.78;47.22
47897;BME280;39629;51.400;5.494;2023-02-28T16:28:02;102775.22;;;4.58;46.63
47897;BME280;39629;51.400;5.494;2023-02-28T16:33:04;102783.78;;;4.39;46.84
47897;BME280;39629;51.400;5.494;2023-02-28T16:38:07;102793.00;;;4.32;48.08
47897;BME280;39629;51.400;5.494;2023-02-28T16:43:15;102797.00;;;4.11;47.42
47897;BME280;39629;51.400;5.494;2023-02-28T16:48:19;102798.50;;;4.05;47.72
47897;BME280;39629;51.400;5.494;2023-02-28T16:53:22;102800.56;;;3.96;49.82
47897;BME280;39629;51.400;5.494;2023-02-28T16:58:23;102795.69;;;3.71;50.97
47897;BME280;39629;51.400;5.494;2023-02-28T17:03:28;102804.22;;;3.68;49.99
47897;BME280;39629;51.400;5.494;2023-02-28T17:08:31;102804.88;;;3.49;53.16
47897;BME280;39629;51.400;5.494;2023-02-28T17:13:33;102812.41;;;3.45;50.72
47897;BME280;39629;51.400;5.494;2023-02-28T17:18:35;102828.03;;;3.30;50.60
47897;BME280;39629;51.400;5.494;2023-02-28T17:23:38;102833.47;;;3.04;52.71
47897;BME280;39629;51.400;5.494;2023-02-28T17:28:39;102849.66;;;2.85;52.86
47897;BME280;39629;51.400;5.494;2023-02-28T17:33:41;102854.44;;;2.64;55.54
47897;BME280;39629;51.400;5.494;2023-02-28T17:38:44;102857.88;;;2.50;56.90
47897;BME280;39629;51.400;5.494;2023-02-28T17:43:46;102865.19;;;2.42;55.99
47897;BME280;39629;51.400;5.494;2023-02-28T17:48:47;102873.72;;;2.26;57.77
47897;BME280;39629;51.400;5.494;2023-02-28T17:53:50;102880.22;;;2.06;62.77
47897;BME280;39629;51.400;5.494;2023-02-28T17:58:53;102886.09;;;1.63;62.97
47897;BME280;39629;51.400;5.494;2023-02-28T18:03:55;102883.78;;;1.55;64.77
47897;BME280;39629;51.400;5.494;2023-02-28T18:08:58;102879.94;;;1.36;64.98
47897;BME280;39629;51.400;5.494;2023-02-28T18:13:59;102895.50;;;0.97;68.30
47897;BME280;39629;51.400;5.494;2023-02-28T18:19:01;102894.44;;;0.82;74.10
47897;BME280;39629;51.400;5.494;2023-02-28T18:24:05;102895.69;;;0.63;79.10
47897;BME280;39629;51.400;5.494;2023-02-28T18:29:07;102897.47;;;0.39;83.59
47897;BME280;39629;51.400;5.494;2023-02-28T18:34:09;102885.53;;;0.29;81.91
47897;BME280;39629;51.400;5.494;2023-02-28T18:39:12;102885.75;;;-0.03;82.34
47897;BME280;39629;51.400;5.494;2023-02-28T18:44:14;102892.06;;;-0.11;89.44
47897;BME280;39629;51.400;5.494;2023-02-28T18:49:16;102884.41;;;-0.10;91.05
47897;BME280;39629;51.400;5.494;2023-02-28T18:54:19;102886.69;;;-0.26;89.45
47897;BME280;39629;51.400;5.494;2023-02-28T18:59:21;102890.13;;;-0.38;89.29
47897;BME280;39629;51.400;5.494;2023-02-28T19:04:22;102888.44;;;-0.49;92.39
47897;BME280;39629;51.400;5.494;2023-02-28T19:09:25;102888.84;;;-0.66;98.18
47897;BME280;39629;51.400;5.494;2023-02-28T19:14:27;102896.34;;;-0.70;100.00
47897;BME280;39629;51.400;5.494;2023-02-28T19:19:29;102896.28;;;-0.93;100.00
47897;BME280;39629;51.400;5.494;2023-02-28T19:24:32;102901.53;;;-1.03;100.00
47897;BME280;39629;51.400;5.494;2023-02-28T19:29:33;102908.56;;;-1.13;100.00
47897;BME280;39629;51.400;5.494;2023-02-28T19:34:35;102910.72;;;-1.29;100.00
47897;BME280;39629;51.400;5.494;2023-02-28T19:39:38;102911.31;;;-1.44;100.00
47897;BME280;39629;51.400;5.494;2023-02-28T19:44:41;102909.22;;;-1.38;100.00
47897;BME280;39629;51.400;5.494;2023-02-28T19:49:43;102916.91;;;-1.27;100.00
47897;BME280;39629;51.400;5.494;2023-02-28T19:54:46;102911.25;;;-1.33;100.00
47897;BME280;39629;51.400;5.494;2023-02-28T19:59:47;102920.13;;;-1.52;100.00
47897;BME280;39629;51.400;5.494;2023-02-28T20:04:49;102929.25;;;-1.67;100.00
47897;BME280;39629;51.400;5.494;2023-02-28T20:09:52;102932.75;;;-1.77;100.00
47897;BME280;39629;51.400;5.494;2023-02-28T20:14:53;102924.59;;;-1.71;100.00
47897;BME280;39629;51.400;5.494;2023-02-28T20:19:56;102929.41;;;-1.44;100.00
47897;BME280;39629;51.400;5.494;2023-02-28T20:24:59;102927.75;;;-1.53;100.00
47897;BME280;39629;51.400;5.494;2023-02-28T20:30:01;102928.34;;;-1.68;100.00
47897;BME280;39629;51.400;5.494;2023-02-28T20:35:03;102922.19;;;-1.48;100.00
47897;BME280;39629;51.400;5.494;2023-02-28T20:40:08;102927.34;;;-1.48;100.00
47897;BME280;39629;51.400;5.494;2023-02-28T20:45:10;102922.75;;;-1.08;96.44
47897;BME280;39629;51.400;5.494;2023-02-28T20:50:12;102920.41;;;-1.27;97.40
47897;BME280;39629;51.400;5.494;2023-02-28T20:55:15;102909.22;;;-1.38;98.03
47897;BME280;39629;51.400;5.494;2023-02-28T21:00:17;102925.94;;;-1.22;97.96
47897;BME280;39629;51.400;5.494;2023-02-28T21:05:19;102913.56;;;-1.26;96.79
47897;BME280;39629;51.400;5.494;2023-02-28T21:10:22;102920.03;;;-1.31;97.58
47897;BME280;39629;51.400;5.494;2023-02-28T21:15:24;102918.19;;;-1.44;98.68
47897;BME280;39629;51.400;5.494;2023-02-28T21:20:26;102923.41;;;-1.32;95.96
47897;BME280;39629;51.400;5.494;2023-02-28T21:25:29;102926.84;;;-1.22;94.39
47897;BME280;39629;51.400;5.494;2023-02-28T21:30:30;102922.63;;;-1.31;95.70
47897;BME280;39629;51.400;5.494;2023-02-28T21:35:32;102926.34;;;-1.28;94.78
47897;BME280;39629;51.400;5.494;2023-02-28T21:40:35;102926.63;;;-1.35;96.04
47897;BME280;39629;51.400;5.494;2023-02-28T21:45:36;102921.56;;;-1.23;95.08
47897;BME280;39629;51.400;5.494;2023-02-28T21:50:38;102920.94;;;-1.31;94.99
47897;BME280;39629;51.400;5.494;2023-02-28T21:55:41;102926.34;;;-1.50;98.41
47897;BME280;39629;51.400;5.494;2023-02-28T22:00:43;102911.09;;;-1.57;98.17
47897;BME280;39629;51.400;5.494;2023-02-28T22:05:45;102914.09;;;-1.52;97.76
47897;BME280;39629;51.400;5.494;2023-02-28T22:10:48;102915.25;;;-1.59;99.52
47897;BME280;39629;51.400;5.494;2023-02-28T22:15:50;102915.38;;;-1.90;100.00
47897;BME280;39629;51.400;5.494;2023-02-28T22:20:53;102921.59;;;-1.98;100.00
47897;BME280;39629;51.400;5.494;2023-02-28T22:25:58;102915.44;;;-2.11;100.00
47897;BME280;39629;51.400;5.494;2023-02-28T22:31:09;102918.78;;;-2.12;100.00
47897;BME280;39629;51.400;5.494;2023-02-28T22:36:13;102933.78;;;-2.38;100.00
47897;BME280;39629;51.400;5.494;2023-02-28T22:41:17;102929.53;;;-2.48;100.00
47897;BME280;39629;51.400;5.494;2023-02-28T22:46:21;102938.53;;;-2.53;100.00
47897;BME280;39629;51.400;5.494;2023-02-28T22:51:24;102940.06;;;-2.55;100.00
47897;BME280;39629;51.400;5.494;2023-02-28T22:56:28;102940.47;;;-2.41;100.00
47897;BME280;39629;51.400;5.494;2023-02-28T23:01:32;102938.66;;;-2.52;100.00
47897;BME280;39629;51.400;5.494;2023-02-28T23:06:35;102936.47;;;-2.27;100.00
47897;BME280;39629;51.400;5.494;2023-02-28T23:11:44;102950.28;;;-2.26;100.00
47897;BME280;39629;51.400;5.494;2023-02-28T23:16:48;102937.09;;;-2.19;100.00
47897;BME280;39629;51.400;5.494;2023-02-28T23:21:50;102941.00;;;-2.34;100.00
47897;BME280;39629;51.400;5.494;2023-02-28T23:26:56;102946.38;;;-2.42;100.00
47897;BME280;39629;51.400;5.494;2023-02-28T23:31:58;102942.03;;;-2.63;100.00
47897;BME280;39629;51.400;5.494;2023-02-28T23:37:01;102943.53;;;-2.65;100.00
47897;BME280;39629;51.400;5.494;2023-02-28T23:42:04;102941.63;;;-2.78;100.00
47897;BME280;39629;51.400;5.494;2023-02-28T23:47:05;102940.47;;;-2.82;100.00
47897;BME280;39629;51.400;5.494;2023-02-28T23:52:07;102942.50;;;-2.88;100.00
47897;BME280;39629;51.400;5.494;2023-02-28T23:57:10;102948.53;;;-2.87;100.00
